Mauston, WI (53948)

4:03 AM CDT on September 26, 2016 (GMT -0500)
Juneau County Weather | | Change Station
Active Advisory: Flood Warning

Elev 873 ft 43.80 °N, 90.07 °W | Updated 19 seconds ago

Clear
Clear
53.3 °F
Feels Like 53.3 °F
N
1.3
Wind Variable Wind from SW
Gusts 2.4 mph

Today
High -- | Low -- °F
--% Chance of Precip.
Yesterday
High -- | Low -- °F
Precip. -- in
Pressure 29.92 in
Visibility 10.0 miles
Clouds Clear
Dew Point 51 °F
Humidity 91%
Rainfall 0.00 in
Snow Depth Not available.
6:52 AM 6:49 PM
Waning Crescent, 20% visible
METAR KVOK 260858Z AUTO 24009KT 10SM CLR 11/09 A2991 RMK AO2 SLP130 T01140085 57010
Pressure 29.92 in
Visibility 10.0 miles
Clouds Clear
Dew Point 51 °F
Humidity 91%
Rainfall 0.00 in
Snow Depth Not available.
6:52 AM 6:49 PM
Waning Crescent, 20% visible
METAR KVOK 260858Z AUTO 24009KT 10SM CLR 11/09 A2991 RMK AO2 SLP130 T01140085 57010

10-Day Weather Forecast

Almanac

Astronomy

Sep. 26, 2016 Rise Set
Actual Time
Civil Twilight
Nautical Twilight
Astronomical Twilight
Moon
Length of Visible Light
Length of Day
Tomorrow will be .
, % of the Moon is Illuminated

Today's Extremes

State Highs State Lows

Community

WunderPhotos

Upload Photos

1,941,852 photos uploaded!

WunderBlog® & News

Nearby

Air Quality

  Air Quality AQ Index Pollutant
Not available.

Snow Depth

Station Depth Elevation

Earthquake Activity

City Distance Mag. Time & Date
Minimum magnitude displayed is 2.5.

Coastal Water Temperatures

Place Temperature

Stations

Nearby Weather Stations

Station Location Temp. Windchill Dew Point Humidity Wind Precip. Elev Updated Type
                   

Watches & Warnings

Flood Warning
Issued: 9:24 PM CDT Sep. 25, 2016 – National Weather Service

The Flood Warning continues for
the Yellow River at Necedah.
* Until late Thursday night... or until the warning is cancelled.
* At 8:30 PM Sunday the stage was 18.1 feet.
* Flood stage is 15.0 feet.
* Major flooding is occurring and major flooding is forecast.
* Forecast... the river will continue to fall... and drop below flood
stage Thursday morning.


Lat... Lon 4415 9009 4415 9014 4395 9006 4396 9003